Accueil
METAR-TAF:

METAR-TAF

Aéroports :

Ingolstadt, Allemagne

latitude: 48-43N, longitude: 011-32E, altitude: 367 m

Observation

Le bulletin a été fait il y a 35 minutes, à 08:20 UTC
Vent 5 kt de est
Température -2°C
Humidité 74%
Pression 1018 hPa
Visibilité 10 km ou plus
Ciel couvert à une hauteur de 1800 ft

METAR: ETSI 140820Z 10005KT 9999 OVC018 M02/M06 Q1018 WHT WHT

Heure: 09:55 (08:55 UTC)

Prévision

Le bulletin a été fait il y a 35 minutes, à 08:20 UTC
Prévision valable du 14 à 09 UTC au 14 à 18 UTC
Vent 7 kt de est
Visibilité 10 km ou plus
Ciel couvert à une hauteur de 2000 ft
Temporairement
du 14 à 11 UTC au 14 à 16 UTC
Vent 12 kt de est/sud-est
Visibilité 10 km ou plus
Quelques nuages à une hauteur de 2000 ft
Nuages fragmentés à une hauteur de 2500 ft

TAF: ETSI 140820Z 1409/1418 09007KT 9999 NSW OVC020 TEMPO 1411/1416 12012KT 9999 NSW FEW020 BKN025

Observations et prévisions météorologiques de plus de 4000 aéroports (messages METAR et TAF).

Les stations disponibles sont représentées par des disques jaunes et rouges sur la carte.

Passer la souris dessus pour voir le nom de la station.

Cliquer dessus pour voir les observations et prévisions météorologiques.

Pour changer de carte: cliquez sur les boutons verts avec une croix noire pour zoomer, sur le bouton vert avec un tiret pour effectuer un zoom arrière, ou sur les flèches vertes pour les cartes adjacentes.


METAR-TAF: